الصفحة الرئيسية
METAR-TAF:

METAR-TAF

مطار :

آباده, إيران

دائرة عرض: 31-11N, خط طول: 052-40E, ارتفاع: 2004 متر

مراقبة الطقس الحالي

تاريخ ووقت الإصدار 58 دقيقة قبل الساعة 08:00UTC
ريح 4 عقدة من الشمال/الشمال الغربي
درجة الحرارة 30°درجة مئوية
الرطوبة 19%
ضغط 1015 hPa
الرؤية: 5000 متر
غبار,

METAR: OISA 140800Z 34004KT 5000 DU NSC 30/04 Q1015 A2998

زمن: 13:28 (08:58 UTC)


TAF: مفقودة

أرصاد الطقس والتوقعات من أكثر من 4000 مطار (تقارير الطقس للمطار METAR والتنبؤ بالطقس بالمطارTAF).

المحطات المتاحة هي النقط الصفراء والحمراء على الخريطة.

حرك المؤشر فوق النقطة لمعرفة اسم المحطة.

ثم انقر لمعرفة أرصاد وتوقعات الطقس.

لتغيير الخارطة: اضغط على الأزرار الخضراء مع رمز الصليب الأسود للتكبير. على الزر الأخضر مع شرطة للتصغير، أو على الأسهم الخضراء للخرائط المجاورة.


METAR-TAF: